Time;durP1;ratioP1;P1;durP2;ratioP2;P2;SDS_P1;SDS_P2;PMS_P1;PMS_P2;Temp;Humidity;BMP_temperature;BMP_pressure;BME280_temperature;BME280_humidity;BME280_pressure;Samples;Min_cycle;Max_cycle;Signal;HPM_P1;HPM_P2
2022/08/16 00:01:57;;;;;;;3.33;1.08;;;;;;;;;;5046578;28;20090;-75
2022/08/16 00:04:23;;;;;;;6.05;0.50;;;;;;;;;;5055401;28;20044;-75
2022/08/16 00:06:49;;;;;;;0.60;0.60;;;;;;;;;;5055529;28;20030;-74
2022/08/16 00:09:14;;;;;;;0.25;0.25;;;;;;;;;;5021207;28;20025;-75
2022/08/16 00:11:41;;;;;;;0.90;0.70;;;;;;;;;;5053969;28;20052;-77
2022/08/16 00:14:09;;;;;;;0.20;0.20;;;;;;;;;;5044826;28;20044;-76
2022/08/16 00:16:35;;;;;;;0.20;0.20;;;;;;;;;;5001357;28;20021;-73
2022/08/16 00:19:01;;;;;;;0.30;0.30;;;;;;;;;;5035485;28;20036;-75
2022/08/16 00:21:26;;;;;;;0.28;0.22;;;;;;;;;;5001271;28;20021;-76
2022/08/16 00:23:52;;;;;;;0.20;0.20;;;;;;;;;;5035457;28;20030;-76
2022/08/16 00:26:17;;;;;;;0.30;0.30;;;;;;;;;;5035860;28;20025;-75
2022/08/16 00:28:45;;;;;;;0.15;0.15;;;;;;;;;;5017589;28;20028;-75
2022/08/16 00:31:13;;;;;;;0.75;0.40;;;;;;;;;;5032656;28;20076;-74
2022/08/16 00:33:38;;;;;;;0.20;0.20;;;;;;;;;;5054789;28;20029;-73
2022/08/16 00:36:04;;;;;;;0.20;0.20;;;;;;;;;;5054868;28;20057;-74
2022/08/16 00:38:29;;;;;;;0.30;0.30;;;;;;;;;;5052310;28;20037;-74
2022/08/16 00:40:56;;;;;;;0.20;0.20;;;;;;;;;;5017278;28;20030;-73
2022/08/16 00:43:23;;;;;;;0.20;0.20;;;;;;;;;;5034889;28;20351;-74
2022/08/16 00:45:56;;;;;;;0.30;0.30;;;;;;;;;;5034825;28;20021;-76
2022/08/16 00:48:22;;;;;;;0.60;0.60;;;;;;;;;;5034668;28;20037;-77
2022/08/16 00:50:48;;;;;;;1.02;0.90;;;;;;;;;;5035090;28;20018;-76
2022/08/16 00:53:15;;;;;;;0.98;0.65;;;;;;;;;;5034806;28;20044;-74
2022/08/16 00:55:46;;;;;;;0.20;0.20;;;;;;;;;;5034529;28;20358;-74
2022/08/16 00:58:12;;;;;;;0.22;0.22;;;;;;;;;;5034688;28;20060;-72
2022/08/16 01:00:38;;;;;;;0.40;0.40;;;;;;;;;;5034593;28;20036;-73
2022/08/16 01:03:06;;;;;;;0.20;0.20;;;;;;;;;;5034102;28;20037;-73
2022/08/16 01:05:33;;;;;;;0.30;0.30;;;;;;;;;;5000583;28;20445;-74
2022/08/16 01:07:59;;;;;;;0.20;0.20;;;;;;;;;;5016709;28;20120;-73
2022/08/16 01:10:26;;;;;;;0.20;0.20;;;;;;;;;;5034676;28;20129;-73
2022/08/16 01:12:52;;;;;;;0.20;0.20;;;;;;;;;;5000409;28;20041;-73
2022/08/16 01:15:17;;;;;;;0.32;0.32;;;;;;;;;;5034341;28;20032;-73
2022/08/16 01:17:45;;;;;;;0.30;0.30;;;;;;;;;;5034099;28;20056;-74
2022/08/16 01:20:12;;;;;;;0.22;0.22;;;;;;;;;;5016832;28;20044;-74
2022/08/16 01:22:37;;;;;;;0.20;0.20;;;;;;;;;;5034256;28;20025;-74
2022/08/16 01:25:10;;;;;;;0.85;0.85;;;;;;;;;;5016496;28;20120;-74
2022/08/16 01:27:39;;;;;;;0.32;0.32;;;;;;;;;;5034437;28;20032;-74
2022/08/16 01:30:04;;;;;;;;;;;;;;;;;;5034395;28;20063;-73
2022/08/16 01:32:34;;;;;;;0.20;0.20;;;;;;;;;;5016221;28;19927;-73
2022/08/16 01:35:08;;;;;;;0.30;0.30;;;;;;;;;;5016851;28;20029;-74
2022/08/16 01:37:39;;;;;;;0.20;0.20;;;;;;;;;;5016299;28;20064;-74
2022/08/16 01:40:05;;;;;;;5.18;3.03;;;;;;;;;;5000152;28;20026;-73
2022/08/16 01:42:31;;;;;;;0.20;0.20;;;;;;;;;;5016170;28;20046;-74
2022/08/16 01:44:57;;;;;;;0.20;0.20;;;;;;;;;;5017215;28;20030;-72
2022/08/16 01:47:22;;;;;;;0.20;0.20;;;;;;;;;;5015945;28;20029;-75
2022/08/16 01:49:48;;;;;;;0.20;0.20;;;;;;;;;;5033983;28;20504;-72
2022/08/16 01:52:15;;;;;;;0.20;0.20;;;;;;;;;;5034752;28;20036;-72
2022/08/16 01:55:00;;;;;;;1.40;1.30;;;;;;;;;;5032303;28;20021;-72
2022/08/16 01:57:27;;;;;;;0.20;0.20;;;;;;;;;;5035407;28;20520;-73
2022/08/16 01:59:53;;;;;;;0.20;0.20;;;;;;;;;;5019513;28;20472;-74
2022/08/16 02:02:19;;;;;;;0.20;0.20;;;;;;;;;;5035688;28;20040;-72
2022/08/16 02:04:45;;;;;;;0.20;0.20;;;;;;;;;;5053438;28;20021;-73
2022/08/16 02:07:12;;;;;;;0.20;0.20;;;;;;;;;;5019116;28;20036;-72
2022/08/16 02:09:39;;;;;;;0.20;0.20;;;;;;;;;;5035423;28;20025;-72
2022/08/16 02:12:07;;;;;;;0.63;0.63;;;;;;;;;;5034709;28;20140;-75
2022/08/16 02:14:34;;;;;;;0.30;0.30;;;;;;;;;;5015821;28;20033;-75
2022/08/16 02:17:01;;;;;;;0.20;0.20;;;;;;;;;;5015552;28;20056;-74
2022/08/16 02:19:28;;;;;;;0.20;0.20;;;;;;;;;;4999392;28;20087;-74
2022/08/16 02:21:54;;;;;;;0.20;0.20;;;;;;;;;;5033515;28;20037;-74
2022/08/16 02:24:21;;;;;;;0.52;0.52;;;;;;;;;;5033646;28;20025;-75
2022/08/16 02:26:48;;;;;;;0.20;0.20;;;;;;;;;;5015607;28;20067;-74
2022/08/16 02:29:17;;;;;;;1.48;0.75;;;;;;;;;;5015622;28;20035;-74
2022/08/16 02:31:44;;;;;;;0.20;0.20;;;;;;;;;;5033143;28;20033;-74
2022/08/16 02:34:11;;;;;;;0.30;0.30;;;;;;;;;;5015203;28;20029;-74
2022/08/16 02:36:39;;;;;;;0.20;0.20;;;;;;;;;;5015324;28;20031;-74
2022/08/16 02:39:06;;;;;;;0.35;0.32;;;;;;;;;;5015314;28;20484;-74
2022/08/16 02:41:33;;;;;;;0.88;0.80;;;;;;;;;;5015718;28;20030;-73
2022/08/16 02:43:58;;;;;;;0.30;0.30;;;;;;;;;;5033752;28;20120;-75
2022/08/16 02:46:26;;;;;;;0.20;0.20;;;;;;;;;;5033283;28;20071;-74
2022/08/16 02:48:51;;;;;;;0.40;0.40;;;;;;;;;;5015550;28;20397;-74
2022/08/16 02:51:18;;;;;;;0.20;0.20;;;;;;;;;;5033036;28;20024;-75
2022/08/16 02:53:46;;;;;;;0.20;0.20;;;;;;;;;;5032835;28;20034;-73
2022/08/16 02:56:13;;;;;;;0.32;0.25;;;;;;;;;;5015897;28;20042;-73
2022/08/16 02:58:40;;;;;;;8.57;1.75;;;;;;;;;;5015467;28;20114;-73
2022/08/16 03:01:06;;;;;;;0.20;0.20;;;;;;;;;;5015330;28;20026;-74
2022/08/16 03:03:33;;;;;;;0.10;0.10;;;;;;;;;;5010967;28;20083;-75
2022/08/16 03:05:59;;;;;;;0.20;0.20;;;;;;;;;;4995344;28;20376;-74
2022/08/16 03:08:25;;;;;;;0.22;0.22;;;;;;;;;;5011268;28;20124;-74
2022/08/16 03:10:51;;;;;;;0.77;0.77;;;;;;;;;;5028480;28;20045;-73
2022/08/16 03:13:19;;;;;;;0.20;0.20;;;;;;;;;;5011574;28;20034;-74
2022/08/16 03:15:45;;;;;;;0.32;0.32;;;;;;;;;;4994727;28;20076;-74
2022/08/16 03:18:11;;;;;;;4.43;4.13;;;;;;;;;;5029006;28;20021;-75
2022/08/16 03:20:37;;;;;;;0.20;0.20;;;;;;;;;;5011289;28;20021;-74
2022/08/16 03:23:06;;;;;;;0.20;0.20;;;;;;;;;;5011042;28;20033;-73
2022/08/16 03:25:32;;;;;;;0.55;0.55;;;;;;;;;;5011680;28;20038;-74
2022/08/16 03:28:00;;;;;;;0.22;0.22;;;;;;;;;;5011393;28;20496;-75
2022/08/16 03:30:29;;;;;;;0.20;0.20;;;;;;;;;;5028968;28;20018;-74
2022/08/16 03:32:57;;;;;;;0.20;0.20;;;;;;;;;;5011817;28;20040;-75
2022/08/16 03:35:27;;;;;;;0.20;0.20;;;;;;;;;;5028759;28;20029;-74
2022/08/16 03:37:55;;;;;;;0.20;0.20;;;;;;;;;;5011167;28;20389;-75
2022/08/16 03:40:21;;;;;;;0.20;0.20;;;;;;;;;;5011082;28;20037;-75
2022/08/16 03:42:46;;;;;;;9.40;2.10;;;;;;;;;;5028924;28;20017;-75
2022/08/16 03:45:13;;;;;;;0.30;0.30;;;;;;;;;;5010964;28;20044;-75
2022/08/16 03:47:40;;;;;;;0.52;0.52;;;;;;;;;;5012484;28;20507;-74
2022/08/16 03:50:06;;;;;;;0.20;0.20;;;;;;;;;;4998413;28;20034;-75
2022/08/16 03:52:34;;;;;;;0.95;0.95;;;;;;;;;;4998305;28;20048;-75
2022/08/16 03:55:01;;;;;;;0.40;0.40;;;;;;;;;;5032300;28;20037;-74
2022/08/16 03:57:28;;;;;;;0.20;0.20;;;;;;;;;;4998217;28;20030;-75
2022/08/16 03:59:55;;;;;;;0.20;0.20;;;;;;;;;;5014226;28;20109;-74
2022/08/16 04:02:21;;;;;;;0.20;0.20;;;;;;;;;;5014565;28;20590;-75
2022/08/16 04:04:48;;;;;;;0.20;0.20;;;;;;;;;;5015077;28;20104;-74
2022/08/16 04:07:15;;;;;;;0.30;0.30;;;;;;;;;;5014202;28;20057;-75
2022/08/16 04:09:42;;;;;;;0.20;0.20;;;;;;;;;;5013981;28;20037;-73
2022/08/16 04:12:09;;;;;;;0.20;0.20;;;;;;;;;;4991255;28;20182;-75
2022/08/16 04:14:36;;;;;;;13.17;1.30;;;;;;;;;;4991115;28;20053;-75
2022/08/16 04:17:03;;;;;;;0.20;0.20;;;;;;;;;;4992560;28;20157;-76
2022/08/16 04:19:34;;;;;;;0.20;0.20;;;;;;;;;;4990760;28;20035;-75
2022/08/16 04:22:01;;;;;;;0.35;0.35;;;;;;;;;;4991344;28;20551;-75
2022/08/16 04:24:33;;;;;;;0.20;0.20;;;;;;;;;;4991001;28;20394;-75
2022/08/16 04:27:00;;;;;;;0.50;0.50;;;;;;;;;;4991271;28;20034;-75
2022/08/16 04:29:26;;;;;;;0.20;0.20;;;;;;;;;;4991680;28;20030;-76
2022/08/16 04:31:54;;;;;;;0.32;0.32;;;;;;;;;;4990624;28;20693;-76
2022/08/16 04:34:20;;;;;;;0.20;0.20;;;;;;;;;;4991871;28;20038;-76
2022/08/16 04:36:50;;;;;;;0.20;0.20;;;;;;;;;;4992062;28;20026;-75
2022/08/16 04:39:17;;;;;;;0.30;0.30;;;;;;;;;;4974608;28;20037;-75
2022/08/16 04:41:43;;;;;;;0.20;0.20;;;;;;;;;;4990703;28;20555;-74
2022/08/16 04:44:10;;;;;;;0.20;0.20;;;;;;;;;;4990993;28;20030;-75
2022/08/16 04:46:36;;;;;;;0.20;0.20;;;;;;;;;;4990819;28;20561;-75
2022/08/16 04:49:02;;;;;;;0.20;0.20;;;;;;;;;;4990140;28;20057;-75
2022/08/16 04:51:29;;;;;;;0.20;0.20;;;;;;;;;;4994844;28;20065;-74
2022/08/16 04:53:55;;;;;;;0.30;0.30;;;;;;;;;;5008498;28;20030;-75
2022/08/16 04:56:21;;;;;;;0.30;0.30;;;;;;;;;;4990729;28;20382;-74
2022/08/16 04:58:48;;;;;;;0.22;0.22;;;;;;;;;;4991115;28;20038;-74
2022/08/16 05:01:16;;;;;;;0.30;0.30;;;;;;;;;;4993822;28;20050;-76
2022/08/16 05:03:42;;;;;;;0.20;0.20;;;;;;;;;;4982206;28;20030;-74
2022/08/16 05:06:08;;;;;;;0.20;0.20;;;;;;;;;;4991734;28;20026;-74
2022/08/16 05:08:34;;;;;;;0.20;0.20;;;;;;;;;;4991392;28;20037;-75
2022/08/16 05:11:15;;;;;;;0.20;0.20;;;;;;;;;;5017438;28;20053;-76
2022/08/16 05:13:42;;;;;;;0.20;0.20;;;;;;;;;;4996575;28;20037;-78
2022/08/16 05:16:15;;;;;;;1.13;1.13;;;;;;;;;;4996876;28;20076;-76
2022/08/16 05:18:41;;;;;;;0.30;0.30;;;;;;;;;;4997015;28;20060;-75
2022/08/16 05:21:07;;;;;;;0.30;0.30;;;;;;;;;;5013224;28;20581;-74
2022/08/16 05:23:32;;;;;;;0.30;0.30;;;;;;;;;;5012928;28;20032;-76
2022/08/16 05:26:00;;;;;;;0.28;0.28;;;;;;;;;;5030606;28;20022;-74
2022/08/16 05:28:26;;;;;;;0.20;0.20;;;;;;;;;;5030717;28;20128;-76
2022/08/16 05:30:53;;;;;;;0.22;0.22;;;;;;;;;;4996797;28;20119;-76
2022/08/16 05:33:24;;;;;;;0.10;0.10;;;;;;;;;;4996377;28;20049;-75
2022/08/16 05:35:50;;;;;;;0.30;0.30;;;;;;;;;;5012605;28;20029;-75
2022/08/16 05:38:27;;;;;;;0.20;0.20;;;;;;;;;;5012453;28;20055;-75
2022/08/16 05:40:59;;;;;;;0.22;0.22;;;;;;;;;;5012897;28;20059;-76
2022/08/16 05:43:26;;;;;;;0.20;0.20;;;;;;;;;;5012687;28;20468;-76
2022/08/16 05:45:52;;;;;;;0.30;0.30;;;;;;;;;;5024067;28;20054;-75
2022/08/16 05:48:18;;;;;;;0.20;0.20;;;;;;;;;;5001820;28;20037;-76
2022/08/16 05:50:53;;;;;;;0.20;0.20;;;;;;;;;;4999032;28;20377;-76
2022/08/16 05:53:19;;;;;;;0.20;0.20;;;;;;;;;;5011879;28;20060;-75
2022/08/16 05:56:01;;;;;;;0.20;0.20;;;;;;;;;;5012435;28;20395;-76
2022/08/16 05:58:26;;;;;;;2.05;1.95;;;;;;;;;;5012746;28;20033;-75
2022/08/16 06:00:52;;;;;;;0.20;0.20;;;;;;;;;;5030115;28;20024;-76
2022/08/16 06:03:18;;;;;;;0.20;0.20;;;;;;;;;;5030022;28;20068;-76
2022/08/16 06:05:59;;;;;;;0.20;0.20;;;;;;;;;;5011850;28;20030;-76
2022/08/16 06:08:26;;;;;;;3.10;1.55;;;;;;;;;;5012157;28;20468;-74
2022/08/16 06:10:51;;;;;;;0.20;0.20;;;;;;;;;;5011351;28;20064;-76
2022/08/16 06:13:18;;;;;;;0.20;0.20;;;;;;;;;;5029288;28;20048;-74
2022/08/16 06:15:45;;;;;;;0.30;0.30;;;;;;;;;;5011944;28;20040;-75
2022/08/16 06:18:10;;;;;;;0.20;0.20;;;;;;;;;;5012393;28;20022;-74
2022/08/16 06:20:36;;;;;;;0.30;0.30;;;;;;;;;;5030085;28;20031;-75
2022/08/16 06:23:15;;;;;;;0.20;0.20;;;;;;;;;;5012970;28;20133;-76
2022/08/16 06:25:52;;;;;;;0.25;0.25;;;;;;;;;;5004668;28;20524;-76
2022/08/16 06:28:18;;;;;;;0.20;0.20;;;;;;;;;;5012365;28;20120;-77
2022/08/16 06:30:47;;;;;;;0.20;0.20;;;;;;;;;;5039213;28;20075;-75
2022/08/16 06:33:18;;;;;;;0.20;0.20;;;;;;;;;;5032502;28;20044;-75
2022/08/16 06:35:45;;;;;;;0.30;0.30;;;;;;;;;;5001435;28;20021;-74
2022/08/16 06:38:12;;;;;;;0.20;0.20;;;;;;;;;;5012061;28;20045;-76
2022/08/16 06:40:38;;;;;;;0.82;0.82;;;;;;;;;;5029634;28;20371;-75
2022/08/16 06:43:03;;;;;;;0.20;0.20;;;;;;;;;;5012387;28;20037;-78
2022/08/16 06:45:37;;;;;;;0.25;0.25;;;;;;;;;;5015554;28;20025;-76
2022/08/16 06:48:06;;;;;;;0.20;0.20;;;;;;;;;;5011769;28;20091;-73
2022/08/16 06:50:34;;;;;;;0.20;0.20;;;;;;;;;;5029522;28;20469;-74
2022/08/16 06:53:05;;;;;;;0.20;0.20;;;;;;;;;;5029685;28;20056;-75
2022/08/16 06:55:35;;;;;;;0.20;0.20;;;;;;;;;;5022072;28;20060;-75
2022/08/16 06:58:06;;;;;;;0.20;0.20;;;;;;;;;;5011715;28;20037;-76
2022/08/16 07:00:32;;;;;;;0.20;0.20;;;;;;;;;;5028673;28;20079;-77
2022/08/16 07:03:05;;;;;;;0.20;0.20;;;;;;;;;;5011545;28;20443;-77
2022/08/16 07:05:34;;;;;;;1.17;1.13;;;;;;;;;;5011234;28;20060;-76
2022/08/16 07:08:10;;;;;;;0.30;0.30;;;;;;;;;;5011504;28;20057;-75
2022/08/16 07:10:38;;;;;;;0.32;0.32;;;;;;;;;;5013387;28;20132;-75
2022/08/16 07:13:04;;;;;;;0.30;0.30;;;;;;;;;;5032166;28;20120;-76
2022/08/16 07:15:31;;;;;;;0.30;0.30;;;;;;;;;;5017926;28;20074;-76
2022/08/16 07:17:59;;;;;;;0.20;0.20;;;;;;;;;;4998060;28;20099;-72
2022/08/16 07:20:26;;;;;;;0.40;0.40;;;;;;;;;;5017886;28;20037;-75
2022/08/16 07:22:54;;;;;;;0.43;0.43;;;;;;;;;;5025377;28;20040;-76
2022/08/16 07:25:28;;;;;;;0.20;0.20;;;;;;;;;;5032946;28;20415;-74
2022/08/16 07:27:53;;;;;;;0.30;0.30;;;;;;;;;;5033053;28;20040;-75
2022/08/16 07:30:23;;;;;;;0.30;0.30;;;;;;;;;;5033414;28;20067;-77
2022/08/16 07:32:49;;;;;;;0.35;0.35;;;;;;;;;;5049505;28;20069;-74
2022/08/16 07:35:16;;;;;;;0.30;0.30;;;;;;;;;;5014762;28;20120;-78
2022/08/16 07:37:41;;;;;;;0.28;0.28;;;;;;;;;;5030127;28;20293;-74
2022/08/16 07:40:27;;;;;;;0.25;0.25;;;;;;;;;;5030572;28;20049;-75
2022/08/16 07:42:53;;;;;;;0.40;0.40;;;;;;;;;;5037124;28;20025;-75
2022/08/16 07:45:20;;;;;;;0.32;0.32;;;;;;;;;;5032318;28;20034;-75
2022/08/16 07:47:49;;;;;;;0.30;0.30;;;;;;;;;;5032470;28;20029;-74
2022/08/16 07:50:15;;;;;;;0.40;0.40;;;;;;;;;;5032710;28;20030;-74
2022/08/16 07:52:43;;;;;;;0.40;0.40;;;;;;;;;;5031451;28;20144;-77
2022/08/16 07:55:12;;;;;;;0.30;0.30;;;;;;;;;;5015669;28;20135;-75
2022/08/16 07:57:39;;;;;;;0.40;0.40;;;;;;;;;;5031849;28;20095;-76
2022/08/16 08:00:05;;;;;;;0.38;0.38;;;;;;;;;;5032564;28;20381;-74
2022/08/16 08:02:39;;;;;;;0.40;0.40;;;;;;;;;;5031921;28;20037;-76
2022/08/16 08:05:06;;;;;;;0.30;0.30;;;;;;;;;;5013978;28;20120;-74
2022/08/16 08:07:32;;;;;;;0.35;0.35;;;;;;;;;;5013626;28;20053;-75
2022/08/16 08:09:58;;;;;;;3.03;2.78;;;;;;;;;;5013957;28;20037;-78
2022/08/16 08:12:24;;;;;;;0.40;0.40;;;;;;;;;;5015746;28;20094;-75
2022/08/16 08:14:49;;;;;;;0.40;0.40;;;;;;;;;;5034324;28;20036;-74
2022/08/16 08:17:16;;;;;;;0.40;0.40;;;;;;;;;;5049493;28;20025;-74
2022/08/16 08:19:44;;;;;;;2.55;2.45;;;;;;;;;;5017153;28;20044;-73
2022/08/16 08:22:10;;;;;;;0.40;0.40;;;;;;;;;;5017611;28;20036;-80
2022/08/16 08:24:42;;;;;;;0.55;0.55;;;;;;;;;;5034133;28;20507;-82
2022/08/16 08:27:09;;;;;;;0.32;0.32;;;;;;;;;;5051524;28;20028;-82
2022/08/16 08:29:35;;;;;;;10.52;6.53;;;;;;;;;;5033634;28;20465;-76
2022/08/16 08:32:01;;;;;;;0.30;0.30;;;;;;;;;;5033147;28;20037;-76
2022/08/16 08:34:27;;;;;;;0.43;0.43;;;;;;;;;;5033300;28;20476;-75
2022/08/16 08:36:53;;;;;;;0.30;0.30;;;;;;;;;;5051332;28;20037;-79
2022/08/16 08:39:33;;;;;;;0.30;0.30;;;;;;;;;;5018919;28;20473;-80
2022/08/16 08:42:00;;;;;;;0.30;0.30;;;;;;;;;;5013587;28;20033;-77
2022/08/16 08:44:25;;;;;;;0.40;0.40;;;;;;;;;;5013820;28;20032;-79
2022/08/16 08:46:55;;;;;;;0.35;0.35;;;;;;;;;;5013717;28;20029;-76
2022/08/16 08:49:21;;;;;;;0.50;0.50;;;;;;;;;;5031806;28;20377;-75
2022/08/16 08:51:47;;;;;;;2.50;2.30;;;;;;;;;;5048303;28;20028;-85
2022/08/16 08:54:14;;;;;;;0.30;0.30;;;;;;;;;;5032899;28;20477;-77
2022/08/16 08:56:43;;;;;;;0.63;0.63;;;;;;;;;;5013534;28;20033;-84
2022/08/16 08:59:38;;;;;;;0.73;0.73;;;;;;;;;;5032882;28;20037;-80
2022/08/16 09:02:07;;;;;;;0.40;0.40;;;;;;;;;;5032903;28;20029;-74
2022/08/16 09:04:45;;;;;;;0.77;0.77;;;;;;;;;;5032996;28;20017;-79
2022/08/16 09:07:12;;;;;;;2.47;2.28;;;;;;;;;;5032797;28;20338;-77
2022/08/16 09:09:38;;;;;;;0.30;0.30;;;;;;;;;;5032287;28;20021;-78
2022/08/16 09:12:07;;;;;;;0.50;0.50;;;;;;;;;;5012639;28;20045;-80
2022/08/16 09:14:55;;;;;;;0.50;0.50;;;;;;;;;;5016359;28;20128;-78
2022/08/16 09:17:23;;;;;;;;;;;;;;;;;;5029467;28;20272;-75
2022/08/16 09:19:50;;;;;;;0.50;0.50;;;;;;;;;;5023285;28;19918;-78
2022/08/16 09:22:16;;;;;;;3.05;0.95;;;;;;;;;;5010898;28;20038;-75
2022/08/16 09:24:41;;;;;;;1.35;1.25;;;;;;;;;;5009243;28;20145;-77
2022/08/16 09:27:07;;;;;;;0.30;0.30;;;;;;;;;;5009371;28;20113;-78
2022/08/16 09:29:32;;;;;;;0.40;0.40;;;;;;;;;;5009441;28;20101;-77
2022/08/16 09:31:58;;;;;;;0.50;0.50;;;;;;;;;;5017359;28;20861;-80
2022/08/16 09:34:23;;;;;;;0.60;0.57;;;;;;;;;;5011844;28;20026;-76
2022/08/16 09:36:49;;;;;;;0.40;0.40;;;;;;;;;;5010983;28;20484;-75
2022/08/16 09:39:16;;;;;;;0.60;0.60;;;;;;;;;;5010376;28;20108;-75
2022/08/16 09:41:42;;;;;;;0.95;0.88;;;;;;;;;;5010077;28;20092;-76
2022/08/16 09:44:08;;;;;;;4.97;3.42;;;;;;;;;;5010881;28;20113;-76
2022/08/16 09:46:33;;;;;;;0.38;0.38;;;;;;;;;;5009233;28;20498;-76
2022/08/16 09:48:59;;;;;;;2.83;1.33;;;;;;;;;;5010605;28;20116;-81
2022/08/16 09:51:25;;;;;;;0.38;0.38;;;;;;;;;;5012349;28;20041;-76
2022/08/16 09:53:51;;;;;;;0.40;0.40;;;;;;;;;;5010728;28;20026;-77
2022/08/16 09:56:30;;;;;;;0.40;0.40;;;;;;;;;;5010111;28;20120;-73
2022/08/16 09:58:56;;;;;;;0.70;0.70;;;;;;;;;;5010384;28;20469;-82
2022/08/16 10:01:21;;;;;;;0.40;0.40;;;;;;;;;;5010317;28;20041;-74
2022/08/16 10:03:47;;;;;;;0.50;0.50;;;;;;;;;;5007161;28;20036;-75
2022/08/16 10:06:12;;;;;;;0.82;0.82;;;;;;;;;;5008008;28;20032;-74
2022/08/16 10:08:38;;;;;;;4.10;2.15;;;;;;;;;;5012819;28;20117;-74
2022/08/16 10:13:47;;;;;;;2.38;0.75;;;;;;;;;;5009924;28;20064;-73
2022/08/16 10:16:14;;;;;;;0.73;0.60;;;;;;;;;;5028238;28;20099;-74
2022/08/16 10:18:41;;;;;;;1.27;0.60;;;;;;;;;;5031453;28;20496;-72
2022/08/16 10:21:06;;;;;;;0.63;0.63;;;;;;;;;;5028333;28;20503;-73
2022/08/16 10:23:33;;;;;;;0.40;0.40;;;;;;;;;;5028144;28;20105;-76
2022/08/16 10:25:59;;;;;;;0.30;0.30;;;;;;;;;;5027715;28;20034;-75
2022/08/16 10:28:25;;;;;;;0.38;0.38;;;;;;;;;;5009807;28;20029;-74
2022/08/16 10:30:50;;;;;;;9.70;2.33;;;;;;;;;;5028791;28;20034;-75
2022/08/16 10:33:16;;;;;;;0.95;0.70;;;;;;;;;;5035618;28;20045;-73
2022/08/16 10:35:42;;;;;;;0.40;0.40;;;;;;;;;;5027396;28;20036;-75
2022/08/16 10:38:08;;;;;;;0.30;0.30;;;;;;;;;;5026935;28;20033;-75
2022/08/16 10:40:34;;;;;;;2.50;0.70;;;;;;;;;;5008983;28;20114;-75
2022/08/16 10:42:59;;;;;;;4.30;1.02;;;;;;;;;;5031758;28;20044;-72
2022/08/16 10:45:26;;;;;;;0.50;0.50;;;;;;;;;;5043699;28;20026;-74
2022/08/16 10:47:51;;;;;;;1.88;1.08;;;;;;;;;;5042398;28;20032;-74
2022/08/16 10:50:17;;;;;;;1.85;1.48;;;;;;;;;;5046512;28;20069;-74
2022/08/16 10:52:43;;;;;;;0.40;0.40;;;;;;;;;;5045899;28;20083;-69
2022/08/16 10:55:11;;;;;;;0.55;0.55;;;;;;;;;;5036012;28;20108;-75
2022/08/16 10:57:37;;;;;;;2.92;1.88;;;;;;;;;;5029742;28;20120;-74
2022/08/16 11:00:06;;;;;;;0.40;0.40;;;;;;;;;;5034861;28;20112;-75
2022/08/16 11:02:32;;;;;;;2.28;1.10;;;;;;;;;;5040219;28;20120;-73
2022/08/16 11:04:58;;;;;;;0.45;0.45;;;;;;;;;;5036144;28;20115;-76
2022/08/16 11:07:24;;;;;;;0.55;0.55;;;;;;;;;;5029522;28;20047;-73
2022/08/16 11:09:49;;;;;;;4.20;1.70;;;;;;;;;;5030159;28;20014;-74
2022/08/16 11:12:15;;;;;;;19.08;0.90;;;;;;;;;;5030596;28;20033;-74
2022/08/16 11:14:40;;;;;;;0.80;0.80;;;;;;;;;;5012704;28;20048;-74
2022/08/16 11:17:05;;;;;;;1.08;0.75;;;;;;;;;;5037066;28;20032;-71
2022/08/16 11:19:32;;;;;;;0.70;0.70;;;;;;;;;;5036733;28;20018;-75
2022/08/16 11:21:58;;;;;;;6.30;0.77;;;;;;;;;;5048962;28;20044;-74
2022/08/16 11:24:24;;;;;;;0.70;0.70;;;;;;;;;;5029591;28;20029;-73
2022/08/16 11:26:51;;;;;;;0.50;0.50;;;;;;;;;;5014071;28;20038;-76
2022/08/16 11:29:17;;;;;;;0.65;0.65;;;;;;;;;;5012672;28;20025;-75
2022/08/16 11:31:42;;;;;;;0.50;0.50;;;;;;;;;;5032686;28;20038;-77
2022/08/16 11:34:08;;;;;;;3.33;2.83;;;;;;;;;;5013685;28;20388;-74
2022/08/16 11:36:34;;;;;;;1.50;0.70;;;;;;;;;;5045919;28;20680;-74
2022/08/16 11:38:59;;;;;;;1.58;1.05;;;;;;;;;;5021387;28;20033;-73
2022/08/16 11:41:25;;;;;;;4.75;3.83;;;;;;;;;;5034259;28;20029;-73
2022/08/16 11:43:51;;;;;;;0.40;0.40;;;;;;;;;;5032454;28;20557;-74
2022/08/16 11:46:16;;;;;;;0.30;0.30;;;;;;;;;;5030721;28;20022;-73
2022/08/16 11:48:44;;;;;;;3.05;1.92;;;;;;;;;;5011158;28;20037;-70
2022/08/16 11:51:10;;;;;;;0.52;0.52;;;;;;;;;;5040312;28;20480;-72
2022/08/16 11:53:36;;;;;;;1.63;0.98;;;;;;;;;;5045027;28;20052;-75
2022/08/16 11:56:01;;;;;;;4.43;3.20;;;;;;;;;;5033050;28;20021;-74
2022/08/16 11:58:28;;;;;;;0.93;0.55;;;;;;;;;;5037079;28;20030;-75
2022/08/16 12:00:54;;;;;;;0.55;0.55;;;;;;;;;;5048768;28;20036;-75
2022/08/16 12:03:23;;;;;;;5.80;2.42;;;;;;;;;;5033311;28;20036;-74
2022/08/16 12:05:49;;;;;;;3.60;1.13;;;;;;;;;;5052145;28;20033;-75
2022/08/16 12:08:14;;;;;;;1.02;0.93;;;;;;;;;;5050582;28;20029;-74
2022/08/16 12:10:41;;;;;;;0.82;0.73;;;;;;;;;;5042861;28;20051;-75
2022/08/16 12:13:08;;;;;;;2.22;1.15;;;;;;;;;;5026306;28;20048;-75
2022/08/16 12:15:34;;;;;;;5.35;1.65;;;;;;;;;;5051446;28;20214;-74
2022/08/16 12:17:59;;;;;;;3.45;1.33;;;;;;;;;;5044887;28;20079;-74
2022/08/16 12:20:27;;;;;;;2.85;1.10;;;;;;;;;;5036096;28;20025;-73
2022/08/16 12:22:53;;;;;;;2.42;1.00;;;;;;;;;;5041813;28;20028;-74
2022/08/16 12:25:19;;;;;;;2.67;0.70;;;;;;;;;;5030974;28;20031;-74
2022/08/16 12:27:46;;;;;;;4.00;1.95;;;;;;;;;;5050814;28;20063;-71
2022/08/16 12:30:13;;;;;;;3.63;1.23;;;;;;;;;;5037632;28;20791;-74
2022/08/16 12:32:40;;;;;;;6.57;1.33;;;;;;;;;;5035958;28;20042;-74
2022/08/16 12:35:08;;;;;;;2.80;1.05;;;;;;;;;;5038428;28;20057;-74
2022/08/16 12:37:34;;;;;;;3.58;1.58;;;;;;;;;;5036533;28;20116;-73
2022/08/16 12:39:59;;;;;;;1.05;0.60;;;;;;;;;;5024276;28;20452;-74
2022/08/16 12:42:25;;;;;;;1.55;1.10;;;;;;;;;;5036661;28;20059;-73
2022/08/16 12:44:51;;;;;;;4.03;1.25;;;;;;;;;;5041133;28;20060;-73
2022/08/16 12:50:02;;;;;;;1.40;0.55;;;;;;;;;;5034069;28;20448;-74
2022/08/16 12:52:29;;;;;;;0.93;0.73;;;;;;;;;;5038255;28;20069;-73
2022/08/16 12:54:56;;;;;;;0.70;0.70;;;;;;;;;;5040798;28;20079;-74
2022/08/16 12:57:24;;;;;;;1.75;0.73;;;;;;;;;;5051079;28;20056;-70
2022/08/16 12:59:50;;;;;;;0.90;0.55;;;;;;;;;;5050972;28;20442;-74
2022/08/16 13:02:15;;;;;;;0.80;0.68;;;;;;;;;;5043609;28;20040;-74
2022/08/16 13:04:41;;;;;;;0.35;0.35;;;;;;;;;;5037177;28;20859;-74
2022/08/16 13:07:06;;;;;;;6.00;1.00;;;;;;;;;;5042872;28;20029;-75
2022/08/16 13:09:33;;;;;;;0.65;0.63;;;;;;;;;;5033718;28;20087;-74
2022/08/16 13:12:02;;;;;;;0.40;0.40;;;;;;;;;;5030469;28;20060;-75
2022/08/16 13:14:32;;;;;;;1.70;1.42;;;;;;;;;;5032094;28;20025;-75
2022/08/16 13:16:59;;;;;;;0.65;0.65;;;;;;;;;;5042640;28;20480;-74
2022/08/16 13:19:24;;;;;;;1.38;1.25;;;;;;;;;;5040357;28;20021;-73
2022/08/16 13:21:49;;;;;;;1.08;0.93;;;;;;;;;;5042453;28;20032;-74
2022/08/16 13:24:15;;;;;;;3.47;1.55;;;;;;;;;;5037584;28;20052;-73
2022/08/16 13:26:40;;;;;;;1.67;1.58;;;;;;;;;;5031517;28;20036;-75
2022/08/16 13:29:06;;;;;;;0.30;0.30;;;;;;;;;;5012435;28;20087;-76
2022/08/16 13:31:32;;;;;;;0.70;0.70;;;;;;;;;;5034380;28;20032;-75
2022/08/16 13:33:57;;;;;;;1.67;0.90;;;;;;;;;;5039282;28;20021;-74
2022/08/16 13:36:23;;;;;;;0.50;0.50;;;;;;;;;;5039053;28;20030;-75
2022/08/16 13:38:49;;;;;;;0.40;0.40;;;;;;;;;;5050230;28;20033;-73
2022/08/16 13:41:15;;;;;;;0.38;0.38;;;;;;;;;;5043608;28;20041;-69
2022/08/16 13:43:43;;;;;;;5.05;1.30;;;;;;;;;;5038720;28;20052;-73
2022/08/16 13:46:08;;;;;;;0.90;0.82;;;;;;;;;;5045879;28;20469;-75
2022/08/16 13:48:35;;;;;;;1.58;1.13;;;;;;;;;;5031841;28;20044;-75
2022/08/16 13:51:01;;;;;;;2.08;1.45;;;;;;;;;;5050013;28;20032;-75
2022/08/16 13:53:27;;;;;;;2.05;0.75;;;;;;;;;;5032039;28;20037;-71
2022/08/16 13:55:53;;;;;;;3.40;1.23;;;;;;;;;;5049840;28;20025;-75
2022/08/16 13:58:18;;;;;;;1.25;1.15;;;;;;;;;;5032333;28;20820;-76
2022/08/16 14:00:44;;;;;;;2.75;1.55;;;;;;;;;;5049625;28;20111;-74
2022/08/16 14:03:10;;;;;;;4.03;1.33;;;;;;;;;;5049843;28;20029;-75
2022/08/16 14:05:35;;;;;;;4.15;1.42;;;;;;;;;;5049214;28;20469;-73
2022/08/16 14:08:02;;;;;;;0.55;0.55;;;;;;;;;;5049924;28;20025;-75
2022/08/16 14:10:27;;;;;;;0.40;0.40;;;;;;;;;;5049388;28;20399;-74
2022/08/16 14:12:53;;;;;;;20.45;6.47;;;;;;;;;;5049163;28;20124;-72
2022/08/16 14:15:19;;;;;;;0.68;0.60;;;;;;;;;;5049650;28;20021;-70
2022/08/16 14:17:45;;;;;;;2.72;1.13;;;;;;;;;;5049524;28;20119;-70
2022/08/16 14:20:12;;;;;;;10.10;3.35;;;;;;;;;;5049867;28;20461;-73
2022/08/16 14:22:39;;;;;;;0.40;0.40;;;;;;;;;;5049553;28;20025;-73
2022/08/16 14:25:09;;;;;;;4.22;1.70;;;;;;;;;;5049299;28;20029;-72
2022/08/16 14:27:34;;;;;;;0.47;0.47;;;;;;;;;;5048984;28;20090;-73
2022/08/16 14:30:00;;;;;;;2.35;1.33;;;;;;;;;;5048887;28;20017;-73
2022/08/16 14:32:28;;;;;;;2.58;1.98;;;;;;;;;;5049177;28;20044;-71
2022/08/16 14:34:54;;;;;;;0.60;0.60;;;;;;;;;;5044167;28;20116;-74
2022/08/16 14:37:20;;;;;;;4.10;1.50;;;;;;;;;;5049613;28;20017;-75
2022/08/16 14:39:46;;;;;;;1.92;0.98;;;;;;;;;;5057195;28;20071;-75
2022/08/16 14:42:13;;;;;;;7.88;4.85;;;;;;;;;;5065201;28;20412;-71
2022/08/16 14:44:39;;;;;;;0.52;0.52;;;;;;;;;;5055597;28;20025;-74
2022/08/16 14:47:05;;;;;;;3.95;1.50;;;;;;;;;;5049394;28;20438;-77
2022/08/16 14:49:31;;;;;;;0.82;0.40;;;;;;;;;;5043002;28;20049;-73